createdAt,value
2017-12-20T00:01:16.356Z,15.20
2017-12-20T00:03:44.704Z,17.43
2017-12-20T00:06:13.077Z,18.00
2017-12-20T00:08:41.449Z,18.27
2017-12-20T00:11:09.797Z,19.73
2017-12-20T00:13:38.183Z,18.17
2017-12-20T00:16:06.532Z,19.10
2017-12-20T00:18:34.923Z,18.83
2017-12-20T00:21:03.374Z,16.90
2017-12-20T00:23:31.757Z,16.27
2017-12-20T00:26:00.109Z,14.70
2017-12-20T00:28:28.516Z,14.90
2017-12-20T00:30:56.879Z,13.90
2017-12-20T00:33:26.192Z,13.80
2017-12-20T00:35:54.560Z,14.47
2017-12-20T00:38:22.907Z,16.20
2017-12-20T00:40:51.652Z,13.57
2017-12-20T00:43:20.122Z,12.90
2017-12-20T00:45:48.472Z,12.80
2017-12-20T00:48:16.816Z,14.53
2017-12-20T00:50:45.189Z,16.30
2017-12-20T00:53:13.543Z,16.80
2017-12-20T00:55:41.910Z,16.90
2017-12-20T00:58:10.294Z,18.57
2017-12-20T01:00:38.665Z,18.87
2017-12-20T01:03:07.044Z,19.67
2017-12-20T01:05:35.407Z,20.80
2017-12-20T01:08:03.762Z,22.03
2017-12-20T01:10:32.191Z,21.40
2017-12-20T01:13:00.673Z,21.23
2017-12-20T01:15:29.040Z,20.67
2017-12-20T01:17:57.417Z,19.90
2017-12-20T01:20:25.900Z,19.50
2017-12-20T01:22:54.274Z,20.20
2017-12-20T01:25:22.636Z,19.43
2017-12-20T01:27:51.013Z,19.03
2017-12-20T01:30:19.355Z,20.30
2017-12-20T01:32:47.712Z,19.07
2017-12-20T01:35:16.176Z,19.27
2017-12-20T01:37:44.523Z,19.27
2017-12-20T01:40:12.935Z,20.20
2017-12-20T01:42:42.909Z,17.57
2017-12-20T01:45:11.649Z,16.73
2017-12-20T01:47:40.016Z,17.13
2017-12-20T01:50:08.408Z,17.20
2017-12-20T01:52:36.769Z,17.27
2017-12-20T01:55:05.152Z,17.23
2017-12-20T01:57:33.509Z,17.10
2017-12-20T02:00:01.886Z,15.37
2017-12-20T02:02:30.239Z,15.53
2017-12-20T02:04:58.607Z,15.50
2017-12-20T02:07:27.460Z,15.20
2017-12-20T02:09:55.834Z,14.87
2017-12-20T02:12:24.188Z,14.40
2017-12-20T02:14:52.536Z,14.90
2017-12-20T02:17:20.972Z,14.53
2017-12-20T02:19:49.387Z,13.50
2017-12-20T02:22:17.753Z,14.37
2017-12-20T02:24:46.104Z,13.10
2017-12-20T02:27:14.461Z,12.43
2017-12-20T02:29:42.828Z,12.30
2017-12-20T02:32:11.247Z,12.93
2017-12-20T02:34:39.624Z,13.30
2017-12-20T02:37:08.005Z,13.03
2017-12-20T02:39:36.387Z,13.83
2017-12-20T02:42:09.447Z,11.80
2017-12-20T02:44:37.838Z,11.77
2017-12-20T02:47:06.186Z,12.97
2017-12-20T02:49:35.008Z,11.83
2017-12-20T02:52:03.377Z,13.70
2017-12-20T02:54:31.777Z,12.50
2017-12-20T02:57:00.136Z,13.23
2017-12-20T02:59:28.528Z,13.40
2017-12-20T03:01:56.923Z,12.43
2017-12-20T03:04:25.288Z,11.50
2017-12-20T03:06:53.672Z,11.23
2017-12-20T03:09:22.027Z,11.60
2017-12-20T03:11:50.404Z,11.00
2017-12-20T03:14:19.619Z,12.20
2017-12-20T03:16:47.999Z,11.40
2017-12-20T03:19:16.355Z,11.77
2017-12-20T03:21:44.703Z,11.43
2017-12-20T03:24:13.464Z,12.50
2017-12-20T03:26:41.808Z,11.80
2017-12-20T03:29:10.206Z,12.30
2017-12-20T03:31:38.556Z,12.00
2017-12-20T03:34:06.938Z,13.43
2017-12-20T03:36:35.293Z,14.10
2017-12-20T03:39:04.036Z,13.60
2017-12-20T03:41:32.504Z,14.80
2017-12-20T03:44:00.844Z,15.13
2017-12-20T03:46:29.270Z,14.33
2017-12-20T03:48:57.620Z,14.80
2017-12-20T03:51:26.058Z,15.90
2017-12-20T03:53:54.908Z,15.53
2017-12-20T03:56:23.312Z,16.00
2017-12-20T03:58:51.769Z,16.83
2017-12-20T04:01:20.123Z,15.47
2017-12-20T04:03:48.528Z,17.53
2017-12-20T04:06:16.867Z,17.43
2017-12-20T04:08:45.275Z,16.33
2017-12-20T04:11:13.633Z,19.90
2017-12-20T04:13:42.084Z,20.00
2017-12-20T04:16:10.531Z,19.63
2017-12-20T04:18:38.888Z,19.20
2017-12-20T04:21:07.235Z,18.43
2017-12-20T04:23:35.990Z,19.47
2017-12-20T04:26:04.333Z,17.27
2017-12-20T04:28:32.747Z,17.63
2017-12-20T04:31:01.109Z,17.90
2017-12-20T04:33:29.488Z,19.57
2017-12-20T04:35:57.865Z,19.43
2017-12-20T04:38:26.232Z,18.43
2017-12-20T04:40:54.608Z,20.60
2017-12-20T04:43:22.995Z,21.17
2017-12-20T04:45:51.972Z,19.57
2017-12-20T04:48:20.326Z,18.30
2017-12-20T04:50:49.067Z,17.90
2017-12-20T04:53:17.536Z,19.30
2017-12-20T04:55:45.891Z,19.57
2017-12-20T04:58:14.297Z,18.37
2017-12-20T05:00:42.636Z,17.90
2017-12-20T05:03:11.034Z,17.40
2017-12-20T05:05:39.400Z,18.37
2017-12-20T05:08:07.759Z,20.43
2017-12-20T05:10:36.588Z,19.13
2017-12-20T05:13:04.946Z,19.03
2017-12-20T05:15:33.316Z,19.33
2017-12-20T05:18:01.668Z,18.13
2017-12-20T05:20:30.111Z,18.87
2017-12-20T05:22:59.413Z,18.40
2017-12-20T05:25:27.796Z,20.37
2017-12-20T05:27:56.835Z,18.17
2017-12-20T05:30:25.345Z,18.50
2017-12-20T05:32:53.856Z,19.20
2017-12-20T05:35:22.217Z,18.67
2017-12-20T05:37:50.584Z,18.50
2017-12-20T05:40:18.959Z,21.50
2017-12-20T05:42:47.309Z,17.90
2017-12-20T05:45:16.073Z,17.50
2017-12-20T05:47:44.441Z,19.03
2017-12-20T05:50:13.808Z,18.93
2017-12-20T05:52:42.224Z,20.27
2017-12-20T05:55:10.576Z,18.20
2017-12-20T05:57:38.964Z,18.50
2017-12-20T06:00:07.360Z,19.40
2017-12-20T06:02:35.840Z,18.87
2017-12-20T06:05:04.296Z,17.50
2017-12-20T06:07:32.671Z,19.03
2017-12-20T06:10:01.063Z,17.80
2017-12-20T06:12:29.432Z,18.77
2017-12-20T06:14:57.792Z,19.20
2017-12-20T06:17:26.145Z,17.50
2017-12-20T06:19:54.920Z,20.93
2017-12-20T06:22:23.265Z,19.50
2017-12-20T06:24:51.609Z,20.97
2017-12-20T06:27:20.024Z,19.60
2017-12-20T06:29:48.401Z,16.73
2017-12-20T06:32:16.765Z,15.70
2017-12-20T06:34:45.125Z,16.40
2017-12-20T06:37:13.501Z,15.67
2017-12-20T06:39:41.883Z,16.00
2017-12-20T06:42:10.250Z,15.50
2017-12-20T06:44:38.997Z,16.30
2017-12-20T06:47:07.472Z,15.30
2017-12-20T06:49:35.864Z,15.63
2017-12-20T06:52:04.229Z,15.93
2017-12-20T06:54:32.586Z,15.67
2017-12-20T06:57:01.075Z,15.53
2017-12-20T06:59:29.454Z,15.50
2017-12-20T07:01:57.830Z,14.70
2017-12-20T07:04:26.325Z,14.20
2017-12-20T07:06:54.714Z,14.93
2017-12-20T07:09:23.097Z,16.10
2017-12-20T07:11:51.468Z,16.53
2017-12-20T07:14:19.827Z,16.83
2017-12-20T07:16:48.204Z,19.03
2017-12-20T07:19:16.598Z,16.73
2017-12-20T07:21:44.964Z,18.70
2017-12-20T07:24:13.353Z,17.80
2017-12-20T07:26:41.734Z,16.57
2017-12-20T07:29:10.088Z,16.60
2017-12-20T07:31:38.440Z,16.40
2017-12-20T07:34:07.212Z,17.07
2017-12-20T07:36:36.055Z,15.33
2017-12-20T07:39:04.412Z,15.80
2017-12-20T07:41:32.844Z,15.50
2017-12-20T07:44:01.181Z,15.80
2017-12-20T07:46:29.572Z,14.13
2017-12-20T07:48:58.025Z,15.40
2017-12-20T07:51:26.405Z,16.30
2017-12-20T07:53:54.809Z,15.63
2017-12-20T07:56:23.212Z,16.87
2017-12-20T07:58:51.562Z,13.77
2017-12-20T08:01:19.908Z,13.87
2017-12-20T08:03:48.324Z,18.13
2017-12-20T08:06:16.693Z,15.30
2017-12-20T08:08:45.083Z,14.00
2017-12-20T08:11:13.434Z,13.80
2017-12-20T08:13:41.805Z,12.80
2017-12-20T08:16:10.579Z,13.67
2017-12-20T08:18:39.424Z,15.03
2017-12-20T08:21:07.785Z,13.67
2017-12-20T08:23:36.221Z,12.40
2017-12-20T08:26:04.993Z,14.10
2017-12-20T08:28:33.368Z,13.17
2017-12-20T08:31:01.730Z,12.90
2017-12-20T08:33:30.204Z,12.57
2017-12-20T08:35:58.569Z,13.70
2017-12-20T08:38:26.916Z,13.77
2017-12-20T08:40:55.712Z,13.43
2017-12-20T08:43:24.240Z,12.83
2017-12-20T08:45:53.232Z,13.77
2017-12-20T08:48:21.586Z,13.10
2017-12-20T08:50:50.087Z,13.77
2017-12-20T08:53:18.481Z,12.70
2017-12-20T08:55:46.841Z,15.70
2017-12-20T08:58:15.211Z,13.47
2017-12-20T09:00:43.568Z,13.73
2017-12-20T09:03:11.992Z,12.50
2017-12-20T09:05:40.355Z,12.43
2017-12-20T09:08:08.740Z,12.87
2017-12-20T09:10:37.332Z,13.97
2017-12-20T09:13:05.704Z,13.73
2017-12-20T09:15:34.071Z,13.60
2017-12-20T09:18:02.420Z,13.67
2017-12-20T09:20:30.840Z,12.27
2017-12-20T09:22:59.217Z,14.27
2017-12-20T09:25:27.588Z,13.73
2017-12-20T09:27:56.897Z,14.73
2017-12-20T09:30:25.252Z,16.20
2017-12-20T09:32:53.670Z,14.00
2017-12-20T09:35:22.028Z,12.77
2017-12-20T09:37:50.401Z,14.27
2017-12-20T09:40:18.788Z,13.40
2017-12-20T09:42:47.188Z,13.60
2017-12-20T09:45:15.652Z,15.00
2017-12-20T09:47:44.036Z,14.33
2017-12-20T09:50:12.451Z,12.90
2017-12-20T09:52:41.205Z,13.73
2017-12-20T09:55:09.583Z,15.10
2017-12-20T09:57:37.953Z,14.67
2017-12-20T10:00:06.549Z,14.77
2017-12-20T10:02:34.906Z,13.90
2017-12-20T10:05:03.263Z,14.00
2017-12-20T10:07:31.634Z,14.60
2017-12-20T10:09:59.990Z,15.30
2017-12-20T10:12:28.756Z,14.60
2017-12-20T10:14:57.117Z,15.00
2017-12-20T10:17:25.495Z,14.63
2017-12-20T10:19:53.873Z,15.33
2017-12-20T10:22:22.234Z,14.30
2017-12-20T10:24:50.731Z,15.93
2017-12-20T10:27:19.111Z,15.47
2017-12-20T10:29:47.498Z,14.90
2017-12-20T10:32:15.849Z,16.60
2017-12-20T10:34:44.207Z,15.17
2017-12-20T10:37:12.626Z,15.40
2017-12-20T10:39:41.007Z,17.10
2017-12-20T10:42:09.381Z,16.60
2017-12-20T10:44:37.732Z,16.17
2017-12-20T10:47:06.144Z,16.50
2017-12-20T10:49:34.533Z,18.17
2017-12-20T10:52:02.908Z,16.30
2017-12-20T10:54:31.285Z,15.10
2017-12-20T10:56:59.656Z,15.17
2017-12-20T10:59:28.040Z,16.33
2017-12-20T11:01:56.415Z,15.60
2017-12-20T11:04:24.829Z,15.00
2017-12-20T11:06:53.180Z,16.40
2017-12-20T11:09:21.588Z,16.03
2017-12-20T11:11:49.947Z,15.53
2017-12-20T11:14:18.421Z,15.63
2017-12-20T11:16:46.830Z,15.57
2017-12-20T11:19:15.586Z,16.00
2017-12-20T11:21:43.956Z,15.93
2017-12-20T11:24:12.513Z,17.13
2017-12-20T11:26:40.920Z,16.70
2017-12-20T11:29:09.326Z,16.00
2017-12-20T11:31:37.705Z,15.80
2017-12-20T11:34:06.161Z,15.33
2017-12-20T11:36:34.557Z,16.03
2017-12-20T11:39:02.920Z,17.47
2017-12-20T11:41:31.273Z,18.07
2017-12-20T11:43:59.749Z,15.47
2017-12-20T11:46:28.112Z,15.60
2017-12-20T11:48:56.919Z,15.03
2017-12-20T11:51:25.231Z,15.53
2017-12-20T11:53:53.624Z,15.23
2017-12-20T11:56:21.988Z,17.97
2017-12-20T11:58:50.358Z,17.07
2017-12-20T12:01:18.830Z,17.33
2017-12-20T12:03:47.189Z,15.70
2017-12-20T12:06:15.544Z,17.67
2017-12-20T12:08:44.372Z,16.07
2017-12-20T12:11:12.734Z,16.60
2017-12-20T12:13:41.107Z,15.47
2017-12-20T12:16:09.520Z,16.67
2017-12-20T12:18:37.872Z,16.40
2017-12-20T12:21:06.243Z,16.87
2017-12-20T12:23:34.648Z,16.80
2017-12-20T12:26:03.088Z,19.67
2017-12-20T12:28:31.926Z,16.80
2017-12-20T12:31:00.301Z,18.30
2017-12-20T12:33:28.665Z,17.63
2017-12-20T12:35:57.238Z,17.87
2017-12-20T12:38:25.636Z,16.73
2017-12-20T12:40:53.988Z,19.33
2017-12-20T12:43:22.380Z,18.50
2017-12-20T12:45:50.735Z,17.40
2017-12-20T12:48:19.488Z,18.93
2017-12-20T12:50:47.940Z,17.93
2017-12-20T12:53:16.288Z,18.77
2017-12-20T12:55:44.664Z,17.57
2017-12-20T12:58:13.081Z,17.40
2017-12-20T13:00:41.444Z,15.77
2017-12-20T13:03:09.787Z,15.67
2017-12-20T13:05:38.632Z,16.17
2017-12-20T13:08:07.217Z,16.67
2017-12-20T13:10:35.573Z,15.23
2017-12-20T13:13:03.928Z,15.73
2017-12-20T13:15:32.350Z,14.37
2017-12-20T13:18:00.716Z,15.00
2017-12-20T13:20:29.075Z,14.83
2017-12-20T13:22:57.432Z,15.80
2017-12-20T13:25:26.195Z,16.57
2017-12-20T13:27:55.172Z,16.47
2017-12-20T13:30:23.576Z,17.97
2017-12-20T13:32:52.035Z,16.23
2017-12-20T13:35:20.412Z,16.30
2017-12-20T13:37:48.778Z,18.43
2017-12-20T13:40:17.269Z,16.97
2017-12-20T13:42:45.648Z,17.23
2017-12-20T13:45:14.416Z,17.77
2017-12-20T13:47:42.870Z,18.43
2017-12-20T13:50:11.704Z,17.43
2017-12-20T13:52:40.089Z,17.60
2017-12-20T13:55:08.462Z,16.90
2017-12-20T13:57:37.068Z,16.50
2017-12-20T14:00:05.422Z,17.53
2017-12-20T14:02:33.798Z,15.73
2017-12-20T14:05:02.317Z,16.90
2017-12-20T14:07:30.671Z,17.07
2017-12-20T14:09:59.077Z,15.50
2017-12-20T14:12:27.820Z,14.57
2017-12-20T14:14:56.203Z,16.53
2017-12-20T14:17:24.699Z,15.70
2017-12-20T14:19:53.070Z,14.33
2017-12-20T14:22:21.449Z,14.60
2017-12-20T14:24:49.819Z,16.60
2017-12-20T14:27:18.174Z,15.73
2017-12-20T14:29:46.522Z,16.50
2017-12-20T14:32:15.289Z,17.63
2017-12-20T14:34:43.654Z,16.67
2017-12-20T14:37:12.140Z,15.23
2017-12-20T14:39:40.605Z,17.80
2017-12-20T14:42:09.097Z,18.13
2017-12-20T14:44:37.468Z,18.30
2017-12-20T14:47:05.817Z,17.60
2017-12-20T14:49:34.184Z,15.50
2017-12-20T14:52:02.595Z,14.30
2017-12-20T14:54:30.961Z,13.70
2017-12-20T14:57:00.197Z,14.73
2017-12-20T14:59:28.743Z,14.97
2017-12-20T15:01:57.096Z,13.13
2017-12-20T15:04:25.847Z,14.00
2017-12-20T15:06:54.310Z,14.47
2017-12-20T15:09:22.669Z,13.40
2017-12-20T15:11:51.032Z,13.10
2017-12-20T15:14:19.384Z,13.60
2017-12-20T15:16:48.157Z,15.10
2017-12-20T15:19:16.500Z,15.90
2017-12-20T15:21:44.857Z,16.93
2017-12-20T15:24:13.218Z,16.07
2017-12-20T15:26:42.167Z,16.67
2017-12-20T15:29:10.532Z,17.37
2017-12-20T15:31:38.922Z,16.93
2017-12-20T15:34:07.283Z,16.90
2017-12-20T15:36:35.665Z,16.33
2017-12-20T15:39:04.024Z,18.40
2017-12-20T15:41:32.379Z,18.83
2017-12-20T15:44:01.381Z,16.90
2017-12-20T15:46:29.736Z,17.70
2017-12-20T15:48:58.088Z,19.40
2017-12-20T15:51:26.492Z,19.17
2017-12-20T15:53:54.860Z,18.53
2017-12-20T15:56:23.224Z,18.93
2017-12-20T15:58:51.581Z,19.37
2017-12-20T16:01:20.021Z,21.40
2017-12-20T16:03:48.774Z,20.30
2017-12-20T16:06:17.120Z,21.37
2017-12-20T16:08:45.489Z,22.33
2017-12-20T16:11:13.854Z,21.47
2017-12-20T16:13:42.285Z,22.30
2017-12-20T16:16:10.696Z,23.50
2017-12-20T16:18:39.453Z,22.70
2017-12-20T16:21:07.924Z,23.03
2017-12-20T16:23:36.269Z,22.70
2017-12-20T16:26:04.653Z,23.00
2017-12-20T16:28:33.136Z,23.77
2017-12-20T16:31:01.489Z,24.63
2017-12-20T16:33:30.255Z,24.70
2017-12-20T16:35:58.616Z,22.50
2017-12-20T16:38:26.982Z,23.67
2017-12-20T16:40:55.361Z,24.33
2017-12-20T16:43:23.728Z,23.83
2017-12-20T16:45:52.089Z,25.40
2017-12-20T16:48:20.453Z,22.77
2017-12-20T16:50:49.392Z,25.70
2017-12-20T16:53:35.604Z,25.37
2017-12-20T16:56:04.170Z,23.63
2017-12-20T16:58:32.525Z,24.40
2017-12-20T17:01:00.920Z,25.70
2017-12-20T17:03:29.318Z,25.50
2017-12-20T17:05:57.680Z,24.33
2017-12-20T17:08:26.074Z,24.70
2017-12-20T17:10:54.444Z,25.80
2017-12-20T17:13:22.824Z,25.97
2017-12-20T17:15:51.177Z,23.93
2017-12-20T17:18:19.585Z,25.67
2017-12-20T17:20:47.961Z,25.10
2017-12-20T17:23:16.313Z,25.67
2017-12-20T17:25:44.694Z,24.43
2017-12-20T17:28:13.061Z,25.50
2017-12-20T17:30:41.429Z,22.90
2017-12-20T17:33:10.172Z,23.50
2017-12-20T17:35:38.637Z,26.30
2017-12-20T17:38:07.024Z,24.00
2017-12-20T17:40:35.409Z,25.03
2017-12-20T17:43:03.782Z,23.80
2017-12-20T17:45:32.159Z,23.93
2017-12-20T17:48:00.528Z,25.43
2017-12-20T17:50:28.912Z,24.00
2017-12-20T17:52:57.268Z,25.23
2017-12-20T17:55:25.629Z,26.93
2017-12-20T17:57:54.050Z,25.60
2017-12-20T18:00:22.429Z,26.60
2017-12-20T18:02:50.784Z,26.23
2017-12-20T18:05:19.168Z,25.63
2017-12-20T18:07:47.527Z,25.57
2017-12-20T18:10:15.884Z,23.43
2017-12-20T18:12:44.644Z,27.17
2017-12-20T18:15:13.005Z,26.37
2017-12-20T18:17:41.388Z,25.73
2017-12-20T18:20:09.745Z,27.00
2017-12-20T18:22:38.104Z,27.30
2017-12-20T18:25:06.478Z,29.10
2017-12-20T18:27:34.909Z,27.37
2017-12-20T18:30:03.384Z,30.00
2017-12-20T18:32:31.749Z,29.90
2017-12-20T18:35:00.151Z,28.90
2017-12-20T18:37:28.516Z,28.10
2017-12-20T18:39:56.875Z,29.23
2017-12-20T18:42:25.279Z,28.50
2017-12-20T18:44:53.652Z,28.47
2017-12-20T18:47:22.028Z,30.10
2017-12-20T18:49:50.424Z,28.60
2017-12-20T18:52:18.888Z,31.07
2017-12-20T18:54:47.285Z,29.60
2017-12-20T18:57:15.652Z,29.67
2017-12-20T18:59:44.035Z,32.50
2017-12-20T19:02:12.416Z,29.67
2017-12-20T19:04:40.805Z,28.87
2017-12-20T19:07:09.163Z,30.50
2017-12-20T19:09:37.518Z,31.73
2017-12-20T19:12:05.869Z,29.57
2017-12-20T19:14:34.625Z,31.00
2017-12-20T19:17:03.018Z,29.93
2017-12-20T19:19:31.384Z,29.97
2017-12-20T19:21:59.736Z,29.87
2017-12-20T19:24:28.130Z,28.90
2017-12-20T19:26:56.520Z,30.10
2017-12-20T19:29:24.889Z,29.87
2017-12-20T19:31:53.252Z,30.60
2017-12-20T19:34:21.606Z,32.37
2017-12-20T19:36:49.955Z,31.50
2017-12-20T19:39:18.301Z,30.40
2017-12-20T19:41:46.661Z,32.17
2017-12-20T19:44:15.035Z,33.43
2017-12-20T19:46:43.404Z,29.90
2017-12-20T19:49:11.770Z,30.13
2017-12-20T19:51:40.149Z,30.13
2017-12-20T19:54:08.516Z,30.40
2017-12-20T19:56:37.265Z,30.40
2017-12-20T19:59:05.630Z,29.97
2017-12-20T20:01:33.988Z,31.20
2017-12-20T20:04:02.357Z,30.80
2017-12-20T20:06:30.712Z,30.50
2017-12-20T20:08:59.499Z,30.77
2017-12-20T20:11:27.871Z,29.50
2017-12-20T20:13:56.619Z,30.50
2017-12-20T20:16:25.076Z,29.53
2017-12-20T20:18:53.432Z,30.30
2017-12-20T20:21:22.373Z,29.70
2017-12-20T20:23:50.721Z,33.10
2017-12-20T20:26:19.082Z,34.13
2017-12-20T20:28:47.917Z,37.60
2017-12-20T20:31:16.271Z,34.90
2017-12-20T20:33:44.653Z,32.60
2017-12-20T20:36:13.017Z,34.50
2017-12-20T20:38:41.449Z,35.17
2017-12-20T20:41:09.821Z,34.57
2017-12-20T20:43:38.285Z,32.97
2017-12-20T20:46:06.669Z,37.37
2017-12-20T20:48:35.044Z,33.17
2017-12-20T20:51:03.410Z,34.80
2017-12-20T20:53:31.762Z,37.17
2017-12-20T20:56:00.677Z,36.03
2017-12-20T20:58:29.033Z,37.10
2017-12-20T21:00:57.475Z,34.07
2017-12-20T21:03:25.854Z,37.40
2017-12-20T21:05:54.208Z,37.13
2017-12-20T21:08:22.567Z,39.53
2017-12-20T21:10:50.969Z,35.50
2017-12-20T21:13:19.353Z,34.17
2017-12-20T21:15:47.712Z,34.33
2017-12-20T21:18:16.073Z,34.57
2017-12-20T21:20:44.444Z,34.10
2017-12-20T21:23:12.805Z,35.67
2017-12-20T21:25:41.594Z,35.97
2017-12-20T21:28:10.336Z,36.20
2017-12-20T21:30:38.694Z,33.00
2017-12-20T21:33:07.060Z,36.40
2017-12-20T21:35:35.493Z,35.10
2017-12-20T21:38:03.876Z,34.70
2017-12-20T21:40:32.344Z,35.90
2017-12-20T21:43:00.713Z,39.87
2017-12-20T21:45:29.069Z,35.60
2017-12-20T21:47:57.781Z,35.70
2017-12-20T21:50:26.143Z,35.23
2017-12-20T21:52:54.493Z,35.90
2017-12-20T21:55:23.021Z,36.70
2017-12-20T21:57:51.373Z,39.50
2017-12-20T22:00:19.748Z,37.63
2017-12-20T22:02:48.331Z,37.37
2017-12-20T22:05:16.772Z,38.70
2017-12-20T22:07:45.581Z,38.77
2017-12-20T22:10:14.004Z,37.60
2017-12-20T22:12:42.472Z,36.60
2017-12-20T22:15:10.857Z,37.73
2017-12-20T22:17:39.230Z,37.67
2017-12-20T22:20:07.589Z,36.07
2017-12-20T22:22:36.001Z,36.47
2017-12-20T22:25:04.422Z,38.57
2017-12-20T22:27:34.284Z,35.87
2017-12-20T22:30:02.664Z,37.57
2017-12-20T22:32:31.332Z,35.77
2017-12-20T22:34:59.712Z,36.77
2017-12-20T22:37:28.089Z,36.50
2017-12-20T22:39:56.506Z,35.80
2017-12-20T22:42:25.052Z,33.47
2017-12-20T22:44:53.431Z,33.60
2017-12-20T22:47:21.932Z,33.73
2017-12-20T22:49:50.313Z,31.70
2017-12-20T22:52:18.692Z,32.67
2017-12-20T22:54:47.050Z,34.07
2017-12-20T22:57:15.408Z,31.70
2017-12-20T22:59:44.236Z,34.43
2017-12-20T23:02:12.726Z,32.17
2017-12-20T23:04:41.205Z,32.83
2017-12-20T23:07:09.560Z,31.90
2017-12-20T23:09:37.941Z,31.77
2017-12-20T23:12:06.347Z,29.57
2017-12-20T23:14:34.701Z,29.63
2017-12-20T23:17:03.108Z,29.67
2017-12-20T23:19:31.488Z,29.83
2017-12-20T23:21:59.875Z,28.40
2017-12-20T23:24:28.225Z,29.47
2017-12-20T23:26:56.618Z,29.37
2017-12-20T23:29:24.984Z,26.70
2017-12-20T23:31:53.359Z,27.20
2017-12-20T23:34:21.717Z,24.80
2017-12-20T23:36:50.072Z,27.77
2017-12-20T23:39:18.827Z,26.27
2017-12-20T23:41:47.180Z,27.10
2017-12-20T23:44:15.672Z,27.70
2017-12-20T23:46:44.056Z,28.10
2017-12-20T23:49:12.448Z,24.67
2017-12-20T23:51:40.804Z,24.10
2017-12-20T23:54:09.192Z,22.80
2017-12-20T23:56:37.581Z,22.50
2017-12-20T23:59:05.949Z,22.33
